Observations for YEOVILTON NAVY, United Kingdom (EGDY)

EGDY 231050Z AUTO 21007KT 9999 BKN014/// 16/14 Q1016
EGDY 230950Z AUTO 20011KT 9999 FEW018/// BKN045/// 16/14 Q1016  
EGDY 230850Z AUTO 19009KT 9999 SCT009/// BKN019/// BKN046/// 15/14 Q1016
EGDY 230750Z AUTO 20011KT 9999 FEW008/// BKN023/// 14/13 Q1016 RERA 
EGDY 230650Z AUTO 19010KT 9000 BR BKN007/// BKN015/// 14/13 Q1016 RERA  
EGDY 230550Z AUTO 19007KT 7000 -DZ FEW008/// BKN035/// 13/12 Q1017  
EGDY 230450Z AUTO 19007KT 9999 FEW013/// BKN041/// 13/12 Q1017 RERA 
EGDY 230350Z AUTO 19007KT 9999 RA BKN040/// BKN050/// 12/11 Q1018   
EGDY 230250Z AUTO 20005KT 9999 -RADZ SCT044/// SCT050/// BKN100/// 11/10 Q1018  
EGDY 230150Z AUTO 20006KT 9999 -RA FEW060/// BKN100/// 11/10 Q1019  
EGDY 230050Z AUTO 20006KT 9999 SCT031/// BKN060/// 12/09 Q1019  
EGDY 222350Z AUTO 21006KT 9999 BKN043/// BKN150/// 11/09 Q1019  
EGDY 222250Z AUTO 21006KT 9999 BKN047/// BKN160/// 11/09 Q1019  
EGDY 222150Z AUTO 22005KT 9999 BKN044/// 12/09 Q1020
EGDY 222050Z AUTO 24004KT 9999 SCT020/// BKN045/// 11/09 Q1020  
EGDY 221950Z AUTO 25012KT 9999 BKN039/// BKN050/// 12/08 Q1019  
EGDY 221850Z AUTO 25009KT 9999 OVC050/// 12/08 Q1019
EGDY 221750Z AUTO 26008KT 9999 BKN050/// 12/08 Q1019
EGDY 221650Z AUTO 26009KT 9999 BKN031/// BKN050/// 12/08 Q1018  
EGDY 221550Z AUTO 27014KT 9999 FEW030/// BKN050/// 12/08 Q1017 RERA 
EGDY 221450Z AUTO 28010KT 9999 BKN028/// BKN043/// 12/09 Q1017 RERA 
EGDY 221350Z AUTO 28018KT 9999 -RA SCT026/// BKN044/// 12/09 Q1017  
EGDY 221250Z AUTO 29014KT 5000 RA FEW024/// BKN028/// BKN050/// 12/09 Q1017 
EGDY 221150Z AUTO 29013KT 9999 +RA BKN025/// SCT050/// 11/09 Q1016  
EGDY 221050Z AUTO 29013G24KT 9999 SCT026/// SCT034/// BKN045/// 12/08 Q1016 RERA